sensor_id;sensor_type;location;lat;lon;timestamp;temperature;humidity
54700;DHT22;40599;53.132;6.090;2022-08-19T00:00:17;15.00;99.90
54700;DHT22;40599;53.132;6.090;2022-08-19T00:02:43;15.00;99.90
54700;DHT22;40599;53.132;6.090;2022-08-19T00:05:10;14.90;99.90
54700;DHT22;40599;53.132;6.090;2022-08-19T00:07:36;14.90;99.90
54700;DHT22;40599;53.132;6.090;2022-08-19T00:10:04;14.90;99.90
54700;DHT22;40599;53.132;6.090;2022-08-19T00:12:30;14.90;99.90
54700;DHT22;40599;53.132;6.090;2022-08-19T00:14:56;14.90;99.90
54700;DHT22;40599;53.132;6.090;2022-08-19T00:17:22;14.90;99.90
54700;DHT22;40599;53.132;6.090;2022-08-19T00:19:48;15.00;99.90
54700;DHT22;40599;53.132;6.090;2022-08-19T00:22:13;14.90;99.90
54700;DHT22;40599;53.132;6.090;2022-08-19T00:24:40;14.90;99.90
54700;DHT22;40599;53.132;6.090;2022-08-19T00:27:06;14.80;99.90
54700;DHT22;40599;53.132;6.090;2022-08-19T00:29:32;14.80;99.90
54700;DHT22;40599;53.132;6.090;2022-08-19T00:31:58;14.70;99.90
54700;DHT22;40599;53.132;6.090;2022-08-19T00:34:25;14.60;99.90
54700;DHT22;40599;53.132;6.090;2022-08-19T00:36:55;14.60;99.90
54700;DHT22;40599;53.132;6.090;2022-08-19T00:39:21;14.60;99.90
54700;DHT22;40599;53.132;6.090;2022-08-19T00:41:50;14.50;99.90
54700;DHT22;40599;53.132;6.090;2022-08-19T00:44:22;14.50;99.90
54700;DHT22;40599;53.132;6.090;2022-08-19T00:46:50;14.40;99.90
54700;DHT22;40599;53.132;6.090;2022-08-19T00:52:15;14.40;99.90
54700;DHT22;40599;53.132;6.090;2022-08-19T00:54:43;14.50;99.90
54700;DHT22;40599;53.132;6.090;2022-08-19T00:57:12;14.50;99.90
54700;DHT22;40599;53.132;6.090;2022-08-19T00:59:40;14.40;99.90
54700;DHT22;40599;53.132;6.090;2022-08-19T01:02:07;14.30;99.90
54700;DHT22;40599;53.132;6.090;2022-08-19T01:04:33;14.30;99.90
54700;DHT22;40599;53.132;6.090;2022-08-19T01:06:59;14.30;99.90
54700;DHT22;40599;53.132;6.090;2022-08-19T01:09:25;14.40;99.90
54700;DHT22;40599;53.132;6.090;2022-08-19T01:11:51;14.30;99.90
54700;DHT22;40599;53.132;6.090;2022-08-19T01:14:17;14.40;99.90
54700;DHT22;40599;53.132;6.090;2022-08-19T01:16:45;14.30;99.90
54700;DHT22;40599;53.132;6.090;2022-08-19T01:19:31;14.40;99.90
54700;DHT22;40599;53.132;6.090;2022-08-19T01:22:04;14.40;99.90
54700;DHT22;40599;53.132;6.090;2022-08-19T01:24:31;14.40;99.90
54700;DHT22;40599;53.132;6.090;2022-08-19T01:26:57;14.40;99.90
54700;DHT22;40599;53.132;6.090;2022-08-19T01:29:23;14.40;99.90
54700;DHT22;40599;53.132;6.090;2022-08-19T01:31:49;14.30;99.90
54700;DHT22;40599;53.132;6.090;2022-08-19T01:34:18;14.30;99.90
54700;DHT22;40599;53.132;6.090;2022-08-19T01:36:46;14.30;99.90
54700;DHT22;40599;53.132;6.090;2022-08-19T01:39:23;14.20;99.90
54700;DHT22;40599;53.132;6.090;2022-08-19T01:41:49;14.20;99.90
54700;DHT22;40599;53.132;6.090;2022-08-19T01:44:15;14.20;99.90
54700;DHT22;40599;53.132;6.090;2022-08-19T01:46:43;14.20;99.90
54700;DHT22;40599;53.132;6.090;2022-08-19T01:49:09;14.30;99.90
54700;DHT22;40599;53.132;6.090;2022-08-19T01:51:36;14.30;99.90
54700;DHT22;40599;53.132;6.090;2022-08-19T01:54:02;14.30;99.90
54700;DHT22;40599;53.132;6.090;2022-08-19T01:56:28;14.30;99.90
54700;DHT22;40599;53.132;6.090;2022-08-19T01:58:58;14.50;99.90
54700;DHT22;40599;53.132;6.090;2022-08-19T02:01:25;14.30;99.90
54700;DHT22;40599;53.132;6.090;2022-08-19T02:03:51;14.30;99.90
54700;DHT22;40599;53.132;6.090;2022-08-19T02:06:19;14.30;99.90
54700;DHT22;40599;53.132;6.090;2022-08-19T02:08:45;14.30;99.90
54700;DHT22;40599;53.132;6.090;2022-08-19T02:11:20;14.20;99.90
54700;DHT22;40599;53.132;6.090;2022-08-19T02:13:46;14.30;99.90
54700;DHT22;40599;53.132;6.090;2022-08-19T02:16:12;14.20;99.90
54700;DHT22;40599;53.132;6.090;2022-08-19T02:18:38;14.20;99.90
54700;DHT22;40599;53.132;6.090;2022-08-19T02:21:03;14.20;99.90
54700;DHT22;40599;53.132;6.090;2022-08-19T02:23:29;14.20;99.90
54700;DHT22;40599;53.132;6.090;2022-08-19T02:25:56;14.20;99.90
54700;DHT22;40599;53.132;6.090;2022-08-19T02:28:22;14.20;99.90
54700;DHT22;40599;53.132;6.090;2022-08-19T02:30:48;14.20;99.90
54700;DHT22;40599;53.132;6.090;2022-08-19T02:33:14;14.20;99.90
54700;DHT22;40599;53.132;6.090;2022-08-19T02:35:46;14.20;99.90
54700;DHT22;40599;53.132;6.090;2022-08-19T02:38:13;14.20;99.90
54700;DHT22;40599;53.132;6.090;2022-08-19T02:40:56;14.20;99.90
54700;DHT22;40599;53.132;6.090;2022-08-19T02:43:23;14.20;99.90
54700;DHT22;40599;53.132;6.090;2022-08-19T02:45:50;14.20;99.90
54700;DHT22;40599;53.132;6.090;2022-08-19T02:48:18;14.20;99.90
54700;DHT22;40599;53.132;6.090;2022-08-19T02:50:45;14.20;99.90
54700;DHT22;40599;53.132;6.090;2022-08-19T02:53:11;14.30;99.90
54700;DHT22;40599;53.132;6.090;2022-08-19T02:55:43;14.30;99.90
54700;DHT22;40599;53.132;6.090;2022-08-19T02:58:10;14.30;99.90
54700;DHT22;40599;53.132;6.090;2022-08-19T03:00:40;14.30;99.90
54700;DHT22;40599;53.132;6.090;2022-08-19T03:03:07;14.30;99.90
54700;DHT22;40599;53.132;6.090;2022-08-19T03:05:33;14.30;99.90
54700;DHT22;40599;53.132;6.090;2022-08-19T03:07:59;14.40;99.90
54700;DHT22;40599;53.132;6.090;2022-08-19T03:10:25;14.40;99.90
54700;DHT22;40599;53.132;6.090;2022-08-19T03:12:51;14.40;99.90
54700;DHT22;40599;53.132;6.090;2022-08-19T03:15:16;14.40;99.90
54700;DHT22;40599;53.132;6.090;2022-08-19T03:17:42;14.40;99.90
54700;DHT22;40599;53.132;6.090;2022-08-19T03:20:08;14.40;99.90
54700;DHT22;40599;53.132;6.090;2022-08-19T03:22:34;14.40;99.90
54700;DHT22;40599;53.132;6.090;2022-08-19T03:25:00;14.40;99.90
54700;DHT22;40599;53.132;6.090;2022-08-19T03:27:25;14.40;99.90
54700;DHT22;40599;53.132;6.090;2022-08-19T03:29:51;14.30;99.90
54700;DHT22;40599;53.132;6.090;2022-08-19T03:32:17;14.40;99.90
54700;DHT22;40599;53.132;6.090;2022-08-19T03:34:43;14.30;99.90
54700;DHT22;40599;53.132;6.090;2022-08-19T03:37:10;14.40;99.90
54700;DHT22;40599;53.132;6.090;2022-08-19T03:39:40;14.40;99.90
54700;DHT22;40599;53.132;6.090;2022-08-19T03:42:06;14.30;99.90
54700;DHT22;40599;53.132;6.090;2022-08-19T03:44:32;14.40;99.90
54700;DHT22;40599;53.132;6.090;2022-08-19T03:46:59;14.40;99.90
54700;DHT22;40599;53.132;6.090;2022-08-19T03:49:27;14.30;99.90
54700;DHT22;40599;53.132;6.090;2022-08-19T03:51:55;14.40;99.90
54700;DHT22;40599;53.132;6.090;2022-08-19T03:54:23;14.40;99.90
54700;DHT22;40599;53.132;6.090;2022-08-19T03:56:51;14.40;99.90
54700;DHT22;40599;53.132;6.090;2022-08-19T03:59:22;14.50;99.90
54700;DHT22;40599;53.132;6.090;2022-08-19T04:01:50;14.50;99.90
54700;DHT22;40599;53.132;6.090;2022-08-19T04:04:16;14.50;99.90
54700;DHT22;40599;53.132;6.090;2022-08-19T04:06:43;14.60;99.90
54700;DHT22;40599;53.132;6.090;2022-08-19T04:09:09;14.60;99.90
54700;DHT22;40599;53.132;6.090;2022-08-19T04:11:38;14.60;99.90
54700;DHT22;40599;53.132;6.090;2022-08-19T04:14:12;14.50;99.90
54700;DHT22;40599;53.132;6.090;2022-08-19T04:16:38;14.50;99.90
54700;DHT22;40599;53.132;6.090;2022-08-19T04:19:05;14.60;99.90
54700;DHT22;40599;53.132;6.090;2022-08-19T04:21:32;14.50;99.90
54700;DHT22;40599;53.132;6.090;2022-08-19T04:23:58;14.50;99.90
54700;DHT22;40599;53.132;6.090;2022-08-19T04:26:27;14.50;99.90
54700;DHT22;40599;53.132;6.090;2022-08-19T04:28:54;14.60;99.90
54700;DHT22;40599;53.132;6.090;2022-08-19T04:31:25;14.60;99.90
54700;DHT22;40599;53.132;6.090;2022-08-19T04:33:56;14.60;99.90
54700;DHT22;40599;53.132;6.090;2022-08-19T04:36:29;14.60;99.90
54700;DHT22;40599;53.132;6.090;2022-08-19T04:38:57;14.60;99.90
54700;DHT22;40599;53.132;6.090;2022-08-19T04:41:23;14.60;99.90
54700;DHT22;40599;53.132;6.090;2022-08-19T04:44:08;14.60;99.90
54700;DHT22;40599;53.132;6.090;2022-08-19T04:46:34;14.60;99.90
54700;DHT22;40599;53.132;6.090;2022-08-19T04:49:02;14.60;99.90
54700;DHT22;40599;53.132;6.090;2022-08-19T04:51:28;14.60;99.90
54700;DHT22;40599;53.132;6.090;2022-08-19T04:53:56;14.60;99.90
54700;DHT22;40599;53.132;6.090;2022-08-19T04:56:23;14.70;99.90
54700;DHT22;40599;53.132;6.090;2022-08-19T04:58:51;14.70;99.90
54700;DHT22;40599;53.132;6.090;2022-08-19T05:01:20;14.70;99.90
54700;DHT22;40599;53.132;6.090;2022-08-19T05:03:46;14.70;99.90
54700;DHT22;40599;53.132;6.090;2022-08-19T05:06:14;14.70;99.90
54700;DHT22;40599;53.132;6.090;2022-08-19T05:08:41;14.80;99.90
54700;DHT22;40599;53.132;6.090;2022-08-19T05:11:31;14.80;99.90
54700;DHT22;40599;53.132;6.090;2022-08-19T05:13:57;14.80;99.90
54700;DHT22;40599;53.132;6.090;2022-08-19T05:16:24;14.80;99.90
54700;DHT22;40599;53.132;6.090;2022-08-19T05:18:51;14.80;99.90
54700;DHT22;40599;53.132;6.090;2022-08-19T05:21:35;14.90;99.90
54700;DHT22;40599;53.132;6.090;2022-08-19T05:24:21;14.90;99.90
54700;DHT22;40599;53.132;6.090;2022-08-19T05:26:48;15.00;99.90
54700;DHT22;40599;53.132;6.090;2022-08-19T05:29:17;15.10;99.90
54700;DHT22;40599;53.132;6.090;2022-08-19T05:34:11;15.20;99.90
54700;DHT22;40599;53.132;6.090;2022-08-19T05:36:42;15.30;99.90
54700;DHT22;40599;53.132;6.090;2022-08-19T05:39:15;15.30;99.90
54700;DHT22;40599;53.132;6.090;2022-08-19T05:41:43;15.30;99.90
54700;DHT22;40599;53.132;6.090;2022-08-19T05:44:09;15.30;99.90
54700;DHT22;40599;53.132;6.090;2022-08-19T05:46:36;15.40;99.90
54700;DHT22;40599;53.132;6.090;2022-08-19T05:49:07;15.50;99.90
54700;DHT22;40599;53.132;6.090;2022-08-19T05:51:35;15.50;99.90
54700;DHT22;40599;53.132;6.090;2022-08-19T05:54:04;15.60;99.90
54700;DHT22;40599;53.132;6.090;2022-08-19T05:56:32;15.60;99.90
54700;DHT22;40599;53.132;6.090;2022-08-19T05:58:58;15.70;99.90
54700;DHT22;40599;53.132;6.090;2022-08-19T06:01:25;15.80;99.90
54700;DHT22;40599;53.132;6.090;2022-08-19T06:03:52;15.80;99.90
54700;DHT22;40599;53.132;6.090;2022-08-19T06:06:19;15.90;99.90
54700;DHT22;40599;53.132;6.090;2022-08-19T06:08:44;15.90;99.90
54700;DHT22;40599;53.132;6.090;2022-08-19T06:11:22;16.00;99.90
54700;DHT22;40599;53.132;6.090;2022-08-19T06:13:51;16.10;99.90
54700;DHT22;40599;53.132;6.090;2022-08-19T06:16:21;16.20;99.90
54700;DHT22;40599;53.132;6.090;2022-08-19T06:18:57;16.30;99.90
54700;DHT22;40599;53.132;6.090;2022-08-19T06:21:27;16.40;99.90
54700;DHT22;40599;53.132;6.090;2022-08-19T06:23:54;16.50;99.90
54700;DHT22;40599;53.132;6.090;2022-08-19T06:26:22;16.50;99.90
54700;DHT22;40599;53.132;6.090;2022-08-19T06:28:48;16.60;99.90
54700;DHT22;40599;53.132;6.090;2022-08-19T06:31:21;16.70;99.90
54700;DHT22;40599;53.132;6.090;2022-08-19T06:33:48;16.80;99.90
54700;DHT22;40599;53.132;6.090;2022-08-19T06:36:24;16.90;99.90
54700;DHT22;40599;53.132;6.090;2022-08-19T06:38:58;17.00;99.90
54700;DHT22;40599;53.132;6.090;2022-08-19T06:41:28;17.10;99.90
54700;DHT22;40599;53.132;6.090;2022-08-19T06:43:55;17.10;99.90
54700;DHT22;40599;53.132;6.090;2022-08-19T06:46:22;17.20;99.90
54700;DHT22;40599;53.132;6.090;2022-08-19T06:48:48;17.30;99.90
54700;DHT22;40599;53.132;6.090;2022-08-19T06:51:16;17.40;99.90
54700;DHT22;40599;53.132;6.090;2022-08-19T06:53:47;17.40;99.90
54700;DHT22;40599;53.132;6.090;2022-08-19T06:56:16;17.50;99.90
54700;DHT22;40599;53.132;6.090;2022-08-19T06:58:42;17.60;99.90
54700;DHT22;40599;53.132;6.090;2022-08-19T07:01:09;17.60;99.90
54700;DHT22;40599;53.132;6.090;2022-08-19T07:03:36;17.70;99.90
54700;DHT22;40599;53.132;6.090;2022-08-19T07:06:04;17.80;99.90
54700;DHT22;40599;53.132;6.090;2022-08-19T07:08:30;17.90;99.90
54700;DHT22;40599;53.132;6.090;2022-08-19T07:10:56;18.00;99.90
54700;DHT22;40599;53.132;6.090;2022-08-19T07:13:22;18.10;99.90
54700;DHT22;40599;53.132;6.090;2022-08-19T07:15:48;18.30;99.90
54700;DHT22;40599;53.132;6.090;2022-08-19T07:18:19;18.50;99.90
54700;DHT22;40599;53.132;6.090;2022-08-19T07:20:46;18.60;99.90
54700;DHT22;40599;53.132;6.090;2022-08-19T07:23:12;18.80;99.90
54700;DHT22;40599;53.132;6.090;2022-08-19T07:25:38;19.00;99.90
54700;DHT22;40599;53.132;6.090;2022-08-19T07:28:04;19.10;99.90
54700;DHT22;40599;53.132;6.090;2022-08-19T07:30:31;19.20;99.90
54700;DHT22;40599;53.132;6.090;2022-08-19T07:32:56;19.40;99.90
54700;DHT22;40599;53.132;6.090;2022-08-19T07:35:23;19.60;99.90
54700;DHT22;40599;53.132;6.090;2022-08-19T07:37:49;19.80;99.90
54700;DHT22;40599;53.132;6.090;2022-08-19T07:40:15;20.00;99.90
54700;DHT22;40599;53.132;6.090;2022-08-19T07:42:41;20.20;99.90
54700;DHT22;40599;53.132;6.090;2022-08-19T07:45:07;20.40;99.90
54700;DHT22;40599;53.132;6.090;2022-08-19T07:47:33;20.50;99.90
54700;DHT22;40599;53.132;6.090;2022-08-19T07:49:59;20.60;99.90
54700;DHT22;40599;53.132;6.090;2022-08-19T07:52:25;20.80;99.90
54700;DHT22;40599;53.132;6.090;2022-08-19T07:54:51;20.90;99.90
54700;DHT22;40599;53.132;6.090;2022-08-19T07:57:17;21.00;99.90
54700;DHT22;40599;53.132;6.090;2022-08-19T07:59:44;21.10;99.90
54700;DHT22;40599;53.132;6.090;2022-08-19T08:02:10;21.30;99.90
54700;DHT22;40599;53.132;6.090;2022-08-19T08:04:36;21.40;99.90
54700;DHT22;40599;53.132;6.090;2022-08-19T08:07:20;21.60;99.90
54700;DHT22;40599;53.132;6.090;2022-08-19T08:10:07;21.80;99.90
54700;DHT22;40599;53.132;6.090;2022-08-19T08:12:37;22.00;99.90
54700;DHT22;40599;53.132;6.090;2022-08-19T08:15:10;22.30;99.90
54700;DHT22;40599;53.132;6.090;2022-08-19T08:20:05;22.60;99.90
54700;DHT22;40599;53.132;6.090;2022-08-19T08:22:32;22.70;99.90
54700;DHT22;40599;53.132;6.090;2022-08-19T08:25:20;22.80;99.90
54700;DHT22;40599;53.132;6.090;2022-08-19T08:27:47;23.00;99.90
54700;DHT22;40599;53.132;6.090;2022-08-19T08:30:19;23.20;99.90
54700;DHT22;40599;53.132;6.090;2022-08-19T08:32:45;23.30;99.90
54700;DHT22;40599;53.132;6.090;2022-08-19T08:35:12;23.40;99.90
54700;DHT22;40599;53.132;6.090;2022-08-19T08:37:38;23.50;99.90
54700;DHT22;40599;53.132;6.090;2022-08-19T08:40:06;23.90;99.90
54700;DHT22;40599;53.132;6.090;2022-08-19T08:42:43;23.70;99.90
54700;DHT22;40599;53.132;6.090;2022-08-19T08:45:16;24.00;99.90
54700;DHT22;40599;53.132;6.090;2022-08-19T08:47:46;23.80;99.90
54700;DHT22;40599;53.132;6.090;2022-08-19T08:55:27;24.40;99.90
54700;DHT22;40599;53.132;6.090;2022-08-19T08:58:06;24.40;99.90
54700;DHT22;40599;53.132;6.090;2022-08-19T09:00:41;24.50;99.90
54700;DHT22;40599;53.132;6.090;2022-08-19T09:03:22;24.60;99.90
54700;DHT22;40599;53.132;6.090;2022-08-19T09:35:48;25.60;99.90
54700;DHT22;40599;53.132;6.090;2022-08-19T09:38:13;25.50;99.90
54700;DHT22;40599;53.132;6.090;2022-08-19T09:40:39;25.50;99.90
54700;DHT22;40599;53.132;6.090;2022-08-19T09:43:07;25.50;99.90
54700;DHT22;40599;53.132;6.090;2022-08-19T09:45:33;25.50;99.90
54700;DHT22;40599;53.132;6.090;2022-08-19T09:48:00;25.60;99.90
54700;DHT22;40599;53.132;6.090;2022-08-19T09:50:25;25.70;99.90
54700;DHT22;40599;53.132;6.090;2022-08-19T09:52:51;25.70;99.90
54700;DHT22;40599;53.132;6.090;2022-08-19T09:55:18;25.70;99.90
54700;DHT22;40599;53.132;6.090;2022-08-19T09:57:44;25.80;99.90
54700;DHT22;40599;53.132;6.090;2022-08-19T10:00:10;25.90;99.90
54700;DHT22;40599;53.132;6.090;2022-08-19T10:02:36;26.00;99.90
54700;DHT22;40599;53.132;6.090;2022-08-19T10:05:02;26.10;99.90
54700;DHT22;40599;53.132;6.090;2022-08-19T10:07:46;26.20;99.90
54700;DHT22;40599;53.132;6.090;2022-08-19T10:10:13;26.30;99.90
54700;DHT22;40599;53.132;6.090;2022-08-19T10:12:39;26.40;99.90
54700;DHT22;40599;53.132;6.090;2022-08-19T10:15:05;26.50;99.90
54700;DHT22;40599;53.132;6.090;2022-08-19T10:17:32;26.50;99.90
54700;DHT22;40599;53.132;6.090;2022-08-19T10:19:59;26.50;99.90
54700;DHT22;40599;53.132;6.090;2022-08-19T10:22:25;26.60;99.90
54700;DHT22;40599;53.132;6.090;2022-08-19T10:24:51;26.60;99.90
54700;DHT22;40599;53.132;6.090;2022-08-19T10:27:17;26.50;99.90
54700;DHT22;40599;53.132;6.090;2022-08-19T10:29:43;26.30;99.90
54700;DHT22;40599;53.132;6.090;2022-08-19T10:32:09;26.20;99.90
54700;DHT22;40599;53.132;6.090;2022-08-19T10:34:37;26.10;99.90
54700;DHT22;40599;53.132;6.090;2022-08-19T11:02:19;27.00;99.90
54700;DHT22;40599;53.132;6.090;2022-08-19T11:04:45;27.00;99.90
54700;DHT22;40599;53.132;6.090;2022-08-19T11:07:11;27.10;99.90
54700;DHT22;40599;53.132;6.090;2022-08-19T11:09:41;27.10;99.90
54700;DHT22;40599;53.132;6.090;2022-08-19T11:12:08;27.20;99.90
54700;DHT22;40599;53.132;6.090;2022-08-19T11:14:36;27.20;99.90
54700;DHT22;40599;53.132;6.090;2022-08-19T11:17:03;27.30;99.90
54700;DHT22;40599;53.132;6.090;2022-08-19T11:19:29;27.20;99.90
54700;DHT22;40599;53.132;6.090;2022-08-19T11:21:54;27.00;99.90
54700;DHT22;40599;53.132;6.090;2022-08-19T11:24:22;27.00;99.90
54700;DHT22;40599;53.132;6.090;2022-08-19T11:26:52;26.90;99.90
54700;DHT22;40599;53.132;6.090;2022-08-19T11:29:22;26.90;99.90
54700;DHT22;40599;53.132;6.090;2022-08-19T11:31:51;26.80;99.90
54700;DHT22;40599;53.132;6.090;2022-08-19T11:34:19;26.80;99.90
54700;DHT22;40599;53.132;6.090;2022-08-19T11:36:46;26.80;99.90
54700;DHT22;40599;53.132;6.090;2022-08-19T11:39:15;26.70;99.90
54700;DHT22;40599;53.132;6.090;2022-08-19T11:41:41;26.70;99.90
54700;DHT22;40599;53.132;6.090;2022-08-19T11:44:07;26.60;99.90
54700;DHT22;40599;53.132;6.090;2022-08-19T11:46:33;26.50;99.90
54700;DHT22;40599;53.132;6.090;2022-08-19T11:49:00;26.30;99.90
54700;DHT22;40599;53.132;6.090;2022-08-19T11:51:29;26.20;99.90
54700;DHT22;40599;53.132;6.090;2022-08-19T11:53:57;26.10;99.90
54700;DHT22;40599;53.132;6.090;2022-08-19T11:56:24;26.10;99.90
54700;DHT22;40599;53.132;6.090;2022-08-19T11:58:50;26.10;99.90
54700;DHT22;40599;53.132;6.090;2022-08-19T12:01:21;26.10;99.90
54700;DHT22;40599;53.132;6.090;2022-08-19T12:03:49;26.30;99.90
54700;DHT22;40599;53.132;6.090;2022-08-19T12:06:20;26.50;99.90
54700;DHT22;40599;53.132;6.090;2022-08-19T12:08:49;26.60;99.90
54700;DHT22;40599;53.132;6.090;2022-08-19T12:11:15;26.70;99.90
54700;DHT22;40599;53.132;6.090;2022-08-19T12:13:41;26.60;99.90
54700;DHT22;40599;53.132;6.090;2022-08-19T12:16:17;26.50;99.90
54700;DHT22;40599;53.132;6.090;2022-08-19T12:18:44;26.30;99.90
54700;DHT22;40599;53.132;6.090;2022-08-19T12:21:14;25.80;99.90
54700;DHT22;40599;53.132;6.090;2022-08-19T12:26:08;24.60;99.90
54700;DHT22;40599;53.132;6.090;2022-08-19T12:28:34;24.30;99.90
54700;DHT22;40599;53.132;6.090;2022-08-19T12:31:00;24.10;99.90
54700;DHT22;40599;53.132;6.090;2022-08-19T12:33:26;24.00;99.90
54700;DHT22;40599;53.132;6.090;2022-08-19T12:35:53;23.90;99.90
54700;DHT22;40599;53.132;6.090;2022-08-19T12:38:19;24.00;99.90
54700;DHT22;40599;53.132;6.090;2022-08-19T12:40:46;24.00;99.90
54700;DHT22;40599;53.132;6.090;2022-08-19T12:43:12;24.00;99.90
54700;DHT22;40599;53.132;6.090;2022-08-19T12:45:39;24.10;99.90
54700;DHT22;40599;53.132;6.090;2022-08-19T12:48:05;24.10;99.90
54700;DHT22;40599;53.132;6.090;2022-08-19T12:50:31;24.20;99.90
54700;DHT22;40599;53.132;6.090;2022-08-19T12:52:57;24.30;99.90
54700;DHT22;40599;53.132;6.090;2022-08-19T12:55:23;24.30;99.90
54700;DHT22;40599;53.132;6.090;2022-08-19T12:57:50;24.30;99.90
54700;DHT22;40599;53.132;6.090;2022-08-19T13:00:18;24.20;99.90
54700;DHT22;40599;53.132;6.090;2022-08-19T13:02:48;24.20;99.90
54700;DHT22;40599;53.132;6.090;2022-08-19T13:05:18;24.20;99.90
54700;DHT22;40599;53.132;6.090;2022-08-19T13:07:49;24.20;99.90
54700;DHT22;40599;53.132;6.090;2022-08-19T13:10:18;24.20;99.90
54700;DHT22;40599;53.132;6.090;2022-08-19T13:12:47;24.10;99.90
54700;DHT22;40599;53.132;6.090;2022-08-19T13:15:14;24.20;99.90
54700;DHT22;40599;53.132;6.090;2022-08-19T13:17:40;24.20;99.90
54700;DHT22;40599;53.132;6.090;2022-08-19T13:20:10;24.20;99.90
54700;DHT22;40599;53.132;6.090;2022-08-19T13:22:37;24.10;99.90
54700;DHT22;40599;53.132;6.090;2022-08-19T13:25:04;24.10;99.90
54700;DHT22;40599;53.132;6.090;2022-08-19T13:27:31;24.10;99.90
54700;DHT22;40599;53.132;6.090;2022-08-19T13:29:56;24.10;99.90
54700;DHT22;40599;53.132;6.090;2022-08-19T13:32:41;24.00;99.90
54700;DHT22;40599;53.132;6.090;2022-08-19T13:35:25;24.00;99.90
54700;DHT22;40599;53.132;6.090;2022-08-19T13:37:51;24.10;99.90
54700;DHT22;40599;53.132;6.090;2022-08-19T13:40:20;24.10;99.90
54700;DHT22;40599;53.132;6.090;2022-08-19T13:42:49;24.20;99.90
54700;DHT22;40599;53.132;6.090;2022-08-19T13:45:21;24.10;99.90
54700;DHT22;40599;53.132;6.090;2022-08-19T13:47:49;24.00;99.90
54700;DHT22;40599;53.132;6.090;2022-08-19T13:50:18;23.80;99.90
54700;DHT22;40599;53.132;6.090;2022-08-19T13:52:44;23.80;99.90
54700;DHT22;40599;53.132;6.090;2022-08-19T13:55:11;23.70;99.90
54700;DHT22;40599;53.132;6.090;2022-08-19T13:57:37;23.60;99.90
54700;DHT22;40599;53.132;6.090;2022-08-19T14:00:12;23.60;99.90
54700;DHT22;40599;53.132;6.090;2022-08-19T14:02:39;23.70;99.90
54700;DHT22;40599;53.132;6.090;2022-08-19T14:05:08;23.70;99.90
54700;DHT22;40599;53.132;6.090;2022-08-19T14:07:34;23.80;99.90
54700;DHT22;40599;53.132;6.090;2022-08-19T14:10:00;23.90;99.90
54700;DHT22;40599;53.132;6.090;2022-08-19T14:12:25;24.00;99.90
54700;DHT22;40599;53.132;6.090;2022-08-19T14:14:51;24.10;99.90
54700;DHT22;40599;53.132;6.090;2022-08-19T14:17:17;24.10;99.90
54700;DHT22;40599;53.132;6.090;2022-08-19T14:19:43;24.10;99.90
54700;DHT22;40599;53.132;6.090;2022-08-19T14:22:09;24.20;99.90
54700;DHT22;40599;53.132;6.090;2022-08-19T14:24:37;24.20;99.90
54700;DHT22;40599;53.132;6.090;2022-08-19T14:27:04;24.30;99.90
54700;DHT22;40599;53.132;6.090;2022-08-19T14:29:30;24.30;99.90
54700;DHT22;40599;53.132;6.090;2022-08-19T14:31:55;24.40;99.90
54700;DHT22;40599;53.132;6.090;2022-08-19T14:53:57;25.40;99.90
54700;DHT22;40599;53.132;6.090;2022-08-19T14:56:26;25.40;99.90
54700;DHT22;40599;53.132;6.090;2022-08-19T14:58:52;25.50;99.90
54700;DHT22;40599;53.132;6.090;2022-08-19T15:01:19;25.70;99.90
54700;DHT22;40599;53.132;6.090;2022-08-19T15:03:46;25.80;99.90
54700;DHT22;40599;53.132;6.090;2022-08-19T15:06:13;25.80;99.90
54700;DHT22;40599;53.132;6.090;2022-08-19T15:08:40;25.90;99.90
54700;DHT22;40599;53.132;6.090;2022-08-19T15:11:14;26.10;99.90
54700;DHT22;40599;53.132;6.090;2022-08-19T15:13:42;26.00;99.90
54700;DHT22;40599;53.132;6.090;2022-08-19T15:16:09;26.00;99.90
54700;DHT22;40599;53.132;6.090;2022-08-19T15:18:35;26.10;99.90
54700;DHT22;40599;53.132;6.090;2022-08-19T15:21:02;26.00;99.90
54700;DHT22;40599;53.132;6.090;2022-08-19T15:23:28;26.10;99.90
54700;DHT22;40599;53.132;6.090;2022-08-19T15:25:54;26.10;99.90
54700;DHT22;40599;53.132;6.090;2022-08-19T15:28:21;26.20;99.90
54700;DHT22;40599;53.132;6.090;2022-08-19T15:30:47;26.20;99.90
54700;DHT22;40599;53.132;6.090;2022-08-19T15:33:13;26.20;99.90
54700;DHT22;40599;53.132;6.090;2022-08-19T15:35:41;26.30;99.90
54700;DHT22;40599;53.132;6.090;2022-08-19T15:38:08;26.40;99.90
54700;DHT22;40599;53.132;6.090;2022-08-19T15:40:34;26.30;99.90
54700;DHT22;40599;53.132;6.090;2022-08-19T15:43:00;26.20;99.90
54700;DHT22;40599;53.132;6.090;2022-08-19T15:45:26;26.20;99.90
54700;DHT22;40599;53.132;6.090;2022-08-19T15:47:58;26.20;99.90
54700;DHT22;40599;53.132;6.090;2022-08-19T15:50:24;26.30;99.90
54700;DHT22;40599;53.132;6.090;2022-08-19T15:52:53;26.30;99.90
54700;DHT22;40599;53.132;6.090;2022-08-19T15:55:23;26.30;99.90
54700;DHT22;40599;53.132;6.090;2022-08-19T15:57:50;26.30;99.90
54700;DHT22;40599;53.132;6.090;2022-08-19T16:00:34;26.10;99.90
54700;DHT22;40599;53.132;6.090;2022-08-19T16:03:27;25.90;99.90
54700;DHT22;40599;53.132;6.090;2022-08-19T16:06:13;25.90;99.90
54700;DHT22;40599;53.132;6.090;2022-08-19T16:08:51;26.10;99.90
54700;DHT22;40599;53.132;6.090;2022-08-19T16:11:21;25.90;99.90
54700;DHT22;40599;53.132;6.090;2022-08-19T16:13:48;26.00;99.90
54700;DHT22;40599;53.132;6.090;2022-08-19T16:16:22;25.90;99.90
54700;DHT22;40599;53.132;6.090;2022-08-19T16:18:49;25.90;99.90
54700;DHT22;40599;53.132;6.090;2022-08-19T16:21:19;25.90;99.90
54700;DHT22;40599;53.132;6.090;2022-08-19T16:23:46;25.70;99.90
54700;DHT22;40599;53.132;6.090;2022-08-19T16:26:14;25.60;99.90
54700;DHT22;40599;53.132;6.090;2022-08-19T16:28:42;25.50;99.90
54700;DHT22;40599;53.132;6.090;2022-08-19T16:31:08;25.50;99.90
54700;DHT22;40599;53.132;6.090;2022-08-19T16:33:34;25.50;99.90
54700;DHT22;40599;53.132;6.090;2022-08-19T16:36:00;25.30;99.90
54700;DHT22;40599;53.132;6.090;2022-08-19T16:38:27;25.40;99.90
54700;DHT22;40599;53.132;6.090;2022-08-19T16:41:02;25.40;99.90
54700;DHT22;40599;53.132;6.090;2022-08-19T16:43:28;25.30;99.90
54700;DHT22;40599;53.132;6.090;2022-08-19T16:45:55;25.00;99.90
54700;DHT22;40599;53.132;6.090;2022-08-19T16:48:26;25.00;99.90
54700;DHT22;40599;53.132;6.090;2022-08-19T17:40:05;23.90;99.90
54700;DHT22;40599;53.132;6.090;2022-08-19T17:42:31;23.20;99.90
54700;DHT22;40599;53.132;6.090;2022-08-19T17:44:57;23.30;99.90
54700;DHT22;40599;53.132;6.090;2022-08-19T17:52:17;23.00;99.90
54700;DHT22;40599;53.132;6.090;2022-08-19T17:54:43;23.00;99.90
54700;DHT22;40599;53.132;6.090;2022-08-19T18:06:57;22.60;99.90
54700;DHT22;40599;53.132;6.090;2022-08-19T18:09:27;22.40;99.90